Power, Montana
Current Conditions -  °F | °C
As of 5:53 PM on Friday 28 Nov 2014 (Local Time) from KGTF Reporting Station
Overcast Overcast  
Wind Chill: -21°   Ceiling: 800
Heat Index: -12°   Visibility: 8mi
Dew Point: -14°   Wind: 15mph
Humidity: 87%   Direction: 360°N
Pressure: 29.5"   Gusts: NA
Location:  47.71°N, 111.69°W
Report Text: KGTF 290053Z 36013KT 8SM OVC008 M12/M14 A2950 RMK AO2 SLP030 T11221139 $
Loading
Personal Weather Stations






























Interactive Weather Map New forecast layout! Learn more

10-Day Weather Forecast

Advertisements
Track Severe Weather on mobile